Time;durP1;ratioP1;P1;durP2;ratioP2;P2;SDS_P1;SDS_P2;PMS_P1;PMS_P2;Temp;Humidity;BMP_temperature;BMP_pressure;BME280_temperature;BME280_humidity;BME280_pressure;Samples;Min_cycle;Max_cycle;Signal;HPM_P1;HPM_P2
2022/08/26 00:03:00;;;;;;;22.60;10.10;;;;;;;24.23;100.00;100473.30;655710;1280;25406;-84
2022/08/26 00:18:05;;;;;;;18.30;8.70;;;;;;;24.07;100.00;100461.65;655316;1280;24354;-84
2022/08/26 00:33:24;;;;;;;21.40;9.80;;;;;;;23.86;100.00;100456.50;654289;1280;1293738;-84
2022/08/26 00:48:31;;;;;;;20.80;8.70;;;;;;;23.65;100.00;100448.26;657251;1280;22580;-84
2022/08/26 01:03:37;;;;;;;19.20;9.00;;;;;;;23.41;100.00;100443.98;655580;1280;26705;-83
2022/08/26 01:18:42;;;;;;;17.00;9.00;;;;;;;23.23;100.00;100452.73;655651;1280;22557;-82
2022/08/26 01:34:25;;;;;;;19.00;8.90;;;;;;;23.07;100.00;100449.23;657064;1280;22842;-82
2022/08/26 01:49:28;;;;;;;17.60;8.20;;;;;;;22.95;100.00;100450.68;654521;1279;24457;-84
2022/08/26 02:04:42;;;;;;;17.80;8.80;;;;;;;22.78;100.00;100452.80;655313;1278;25030;-85
2022/08/26 02:19:51;;;;;;;18.00;8.60;;;;;;;22.58;100.00;100456.08;656147;1279;23768;-85
2022/08/26 02:34:55;;;;;;;26.60;9.00;;;;;;;22.35;100.00;100455.81;657289;1279;25410;-84
2022/08/26 02:50:09;;;;;;;14.60;8.20;;;;;;;22.18;100.00;100447.27;658065;1277;24242;-83
2022/08/26 03:05:12;;;;;;;22.50;8.60;;;;;;;21.96;100.00;100448.35;658030;1279;25494;-83
2022/08/26 03:20:15;;;;;;;16.90;8.80;;;;;;;21.80;100.00;100444.05;657380;1278;24081;-84
2022/08/26 03:35:19;;;;;;;13.30;7.30;;;;;;;21.61;100.00;100444.41;657086;1278;23623;-83
2022/08/26 03:50:25;;;;;;;16.20;8.20;;;;;;;21.48;100.00;100437.07;657030;1279;25384;-84
2022/08/26 04:05:28;;;;;;;17.80;8.60;;;;;;;21.39;100.00;100434.88;656564;1280;23511;-84
2022/08/26 04:20:31;;;;;;;17.10;8.60;;;;;;;21.42;100.00;100434.67;656823;1279;138901;-83
2022/08/26 04:35:35;;;;;;;18.60;9.30;;;;;;;21.50;100.00;100438.91;656868;1278;140268;-83
2022/08/26 04:50:39;;;;;;;23.10;11.20;;;;;;;21.62;100.00;100438.26;656760;1278;140158;-82
2022/08/26 05:05:46;;;;;;;41.70;25.20;;;;;;;21.75;100.00;100449.06;665049;1276;140020;-83
2022/08/26 05:20:52;;;;;;;36.60;24.10;;;;;;;22.12;100.00;100449.48;657403;1277;139494;-83
2022/08/26 05:35:56;;;;;;;29.40;12.70;;;;;;;22.56;100.00;100456.09;656542;1277;139916;-84
2022/08/26 05:51:03;;;;;;;16.00;7.60;;;;;;;23.22;100.00;100454.77;656350;1277;139817;-83
2022/08/26 06:06:09;;;;;;;15.50;7.60;;;;;;;23.67;100.00;100451.86;656845;1279;139758;-84
2022/08/26 06:21:25;;;;;;;14.10;7.20;;;;;;;24.04;100.00;100452.07;656803;1277;139961;-85
2022/08/26 06:36:30;;;;;;;10.20;6.60;;;;;;;24.52;100.00;100455.94;659582;1277;140390;-83
2022/08/26 06:51:37;;;;;;;15.60;6.90;;;;;;;25.05;100.00;100468.92;661516;1277;140087;-82
2022/08/26 07:06:42;;;;;;;11.00;6.30;;;;;;;25.92;100.00;100469.35;656898;1277;139375;-84
2022/08/26 07:21:47;;;;;;;12.60;6.10;;;;;;;26.26;99.79;100468.33;657344;1277;140868;-85
2022/08/26 07:36:51;;;;;;;9.60;6.90;;;;;;;27.30;92.98;100480.37;657196;1277;140464;-85
2022/08/26 07:51:55;;;;;;;11.40;6.90;;;;;;;28.15;88.69;100474.76;656806;1277;139869;-86
2022/08/26 08:06:59;;;;;;;16.10;9.60;;;;;;;28.92;83.27;100471.45;655830;1280;140405;-87
2022/08/26 08:22:04;;;;;;;13.50;8.50;;;;;;;29.35;77.46;100477.27;655942;1277;140392;-86
2022/08/26 08:37:20;;;;;;;14.50;8.10;;;;;;;29.45;75.31;100471.84;655410;1278;140008;-86
2022/08/26 08:52:31;;;;;;;11.30;8.00;;;;;;;29.67;75.17;100463.82;657471;1278;139709;-84
2022/08/26 09:08:01;;;;;;;9.70;8.30;;;;;;;30.31;74.56;100465.63;657028;1279;138640;-85
2022/08/26 09:23:04;;;;;;;18.10;8.00;;;;;;;31.41;72.46;100466.60;656455;1277;139934;-84
2022/08/26 09:38:21;;;;;;;14.40;8.10;;;;;;;32.32;70.58;100457.81;655873;1277;140093;-85
2022/08/26 09:53:33;;;;;;;11.60;6.80;;;;;;;33.64;70.89;100444.56;656250;1277;138943;-85
2022/08/26 10:08:41;;;;;;;9.70;6.50;;;;;;;34.07;63.68;100436.90;655610;1277;139965;-85
2022/08/26 10:23:54;;;;;;;11.40;6.10;;;;;;;33.60;62.08;100428.94;655838;1277;140529;-84
2022/08/26 10:39:02;;;;;;;11.80;6.20;;;;;;;32.51;61.59;100420.98;656955;1277;141301;-83
2022/08/26 10:54:12;;;;;;;7.70;5.50;;;;;;;31.98;61.80;100419.34;659591;1277;138543;-83
2022/08/26 11:09:44;;;;;;;7.00;4.60;;;;;;;33.36;61.07;100404.59;656952;1277;140124;-83
2022/08/26 11:24:51;;;;;;;8.50;5.60;;;;;;;34.91;56.94;100391.36;660485;1277;139746;-84
2022/08/26 11:39:55;;;;;;;8.40;4.70;;;;;;;35.99;54.65;100370.46;656389;1277;139271;-85
2022/08/26 11:55:02;;;;;;;7.20;3.90;;;;;;;36.69;51.49;100353.13;657666;1277;139979;-86
2022/08/26 12:10:06;;;;;;;7.60;3.40;;;;;;;36.25;50.32;100335.41;656391;1279;138525;-85
2022/08/26 12:25:11;;;;;;;8.40;3.70;;;;;;;36.43;51.70;100326.29;657761;1278;139255;-85
2022/08/26 12:40:38;;;;;;;8.40;3.90;;;;;;;37.71;50.95;100311.95;657099;1277;2227991;-85
2022/08/26 12:55:43;;;;;;;8.80;4.30;;;;;;;38.13;46.66;100293.17;657382;1278;139042;-86
2022/08/26 13:11:07;;;;;;;8.30;3.80;;;;;;;38.54;46.13;100275.03;657063;1277;139859;-85
2022/08/26 13:26:12;;;;;;;12.50;3.70;;;;;;;38.88;44.12;100257.71;659562;1278;138470;-86
2022/08/26 13:41:15;;;;;;;7.60;3.90;;;;;;;37.89;43.00;100247.01;660348;1278;139838;-85
2022/08/26 13:56:33;;;;;;;7.40;3.50;;;;;;;37.07;43.66;100235.13;660642;1276;140135;-85
2022/08/26 14:11:36;;;;;;;7.80;3.20;;;;;;;36.03;45.06;100218.69;658453;1277;139672;-87
2022/08/26 14:26:57;;;;;;;7.60;3.00;;;;;;;39.24;44.45;100207.29;663098;1276;138754;-87
2022/08/26 14:42:01;;;;;;;6.90;3.40;;;;;;;47.21;39.53;100207.29;660085;1277;140210;-86
2022/08/26 14:57:10;;;;;;;8.50;3.50;;;;;;;50.41;37.18;100187.59;659656;1277;138367;-83
2022/08/26 15:12:14;;;;;;;9.80;3.60;;;;;;;47.14;36.22;100167.98;660997;1278;138452;-85
2022/08/26 15:27:18;;;;;;;5.30;3.40;;;;;;;43.50;37.91;100147.35;659912;1277;138722;-87
2022/08/26 15:42:22;;;;;;;12.10;7.50;;;;;;;48.01;35.58;100144.10;659699;1277;138757;-86
2022/08/26 15:57:26;;;;;;;121.50;95.60;;;;;;;42.93;38.47;100122.63;659241;1277;139442;-88
2022/08/26 16:12:30;;;;;;;73.30;56.40;;;;;;;38.35;43.29;100117.12;659446;1278;140066;-88
2022/08/26 16:27:33;;;;;;;10.80;6.60;;;;;;;36.76;46.39;100107.23;658796;1278;138810;-89
2022/08/26 16:42:37;;;;;;;10.20;5.20;;;;;;;35.94;48.74;100101.71;660511;1277;140833;-84
2022/08/26 16:57:43;;;;;;;14.00;9.40;;;;;;;34.83;52.29;100098.65;661046;1278;140212;-88
2022/08/26 17:12:48;;;;;;;56.50;41.60;;;;;;;33.34;55.59;100098.25;661259;1277;22541;-88
2022/08/26 18:51:28;;;;;;;13.00;7.50;;;;;;;28.22;75.86;100159.66;638118;1312;1497013;-87
2022/08/26 19:06:34;;;;;;;18.50;10.60;;;;;;;27.92;76.68;100167.93;656419;1286;138910;-88
2022/08/26 19:21:38;;;;;;;22.30;12.10;;;;;;;27.56;77.74;100162.41;654853;1286;139301;-87
2022/08/26 19:36:43;;;;;;;25.40;16.30;;;;;;;27.25;78.61;100161.67;655533;1287;139272;-89
2022/08/26 19:51:48;;;;;;;25.60;13.80;;;;;;;26.85;82.33;100168.80;656852;1286;140973;-87
2022/08/26 20:06:52;;;;;;;23.50;14.10;;;;;;;26.56;86.03;100178.27;652043;1286;138801;-86
2022/08/26 20:22:01;;;;;;;;;;;;;;;26.31;87.23;100178.51;652265;1287;140038;-89
2022/08/26 20:37:07;;;;;;;17.50;8.90;;;;;;;26.08;85.23;100178.52;651749;1286;125490;-89
2022/08/26 20:52:11;;;;;;;12.10;5.70;;;;;;;25.86;83.86;100181.30;651629;1287;138918;-89
2022/08/26 21:07:15;;;;;;;8.30;4.40;;;;;;;25.89;76.84;100168.43;652432;1286;138251;-88
2022/08/26 21:22:19;;;;;;;7.90;5.20;;;;;;;25.91;72.36;100164.60;652495;1286;140596;-89
2022/08/26 21:37:25;;;;;;;9.90;4.90;;;;;;;25.81;71.00;100172.02;652998;1286;140493;-88
2022/08/26 21:52:29;;;;;;;10.80;5.50;;;;;;;25.64;70.87;100171.61;654321;1286;139613;-89
2022/08/26 22:07:32;;;;;;;9.40;5.10;;;;;;;25.46;71.27;100170.91;655426;1286;139899;-89
2022/08/26 22:22:35;;;;;;;9.40;5.50;;;;;;;25.26;72.22;100168.42;655693;1286;138615;-87
2022/08/26 22:37:39;;;;;;;8.80;5.00;;;;;;;25.12;72.58;100175.99;657843;1280;139378;-89
2022/08/26 22:52:42;;;;;;;10.40;5.10;;;;;;;24.83;73.92;100178.35;657696;1279;139848;-89
2022/08/26 23:07:45;;;;;;;9.10;5.30;;;;;;;24.47;75.71;100168.17;657918;1280;139471;-88
2022/08/26 23:22:48;;;;;;;10.80;6.20;;;;;;;24.18;77.12;100162.46;657664;1280;138444;-86
2022/08/26 23:37:52;;;;;;;10.60;6.20;;;;;;;23.90;78.42;100156.65;656485;1279;140369;-89
2022/08/26 23:53:04;;;;;;;12.90;6.20;;;;;;;23.47;80.55;100143.65;656759;1280;138069;-89
